Time;durP1;ratioP1;P1;durP2;ratioP2;P2;SDS_P1;SDS_P2;PMS_P1;PMS_P2;Temp;Humidity;BMP_temperature;BMP_pressure;BME280_temperature;BME280_humidity;BME280_pressure;Samples;Min_cycle;Max_cycle;Signal;HPM_P1;HPM_P2
2023/05/29 00:00:18;;;;;;;8.80;4.07;;;11.20;97.00;;;;;;2038041;28;20191;-72
2023/05/29 00:01:20;;;;;;;8.93;4.00;;;11.00;89.50;;;;;;2046925;28;20761;-71
2023/05/29 00:02:21;;;;;;;8.45;3.58;;;10.90;89.50;;;;;;2046020;28;20241;-71
2023/05/29 00:03:22;;;;;;;4.87;3.47;;;11.00;89.90;;;;;;2052014;28;20233;-71
2023/05/29 00:04:23;;;;;;;5.37;3.43;;;10.90;90.00;;;;;;2052087;28;20702;-71
2023/05/29 00:05:23;;;;;;;7.83;4.03;;;10.90;90.00;;;;;;2062913;28;20221;-71
2023/05/29 00:06:24;;;;;;;5.83;3.33;;;10.90;90.10;;;;;;2054328;28;20231;-71
2023/05/29 00:07:25;;;;;;;8.50;3.60;;;10.90;90.20;;;;;;2061251;28;21061;-71
2023/05/29 00:08:26;;;;;;;8.00;3.50;;;11.00;90.40;;;;;;2063083;28;20229;-72
2023/05/29 00:09:27;;;;;;;6.87;3.53;;;10.90;90.40;;;;;;2056790;28;20268;-70
2023/05/29 00:10:30;;;;;;;8.43;3.88;;;10.80;90.80;;;;;;2063573;28;20312;-71
2023/05/29 00:11:31;;;;;;;8.65;4.30;;;10.80;91.10;;;;;;2059282;28;20233;-71
2023/05/29 00:12:32;;;;;;;6.63;3.73;;;10.70;91.30;;;;;;2059051;28;20275;-69
2023/05/29 00:13:33;;;;;;;8.83;4.47;;;10.60;91.50;;;;;;2048003;28;20635;-70
2023/05/29 00:14:34;;;;;;;8.33;3.37;;;10.70;92.00;;;;;;2059261;28;20277;-72
2023/05/29 00:15:35;;;;;;;6.97;3.53;;;10.60;91.90;;;;;;2054721;28;20288;-72
2023/05/29 00:16:37;;;;;;;6.97;3.80;;;10.60;91.80;;;;;;2056920;28;20231;-73
2023/05/29 00:17:39;;;;;;;7.25;3.55;;;10.60;91.60;;;;;;2058679;28;20218;-72
2023/05/29 00:18:45;;;;;;;6.95;3.25;;;10.60;91.50;;;;;;2045073;28;20238;-71
2023/05/29 00:19:46;;;;;;;8.13;4.05;;;10.60;91.60;;;;;;2056644;28;20731;-70
2023/05/29 00:20:46;;;;;;;7.67;4.23;;;10.90;91.60;;;;;;2057474;28;20229;-71
2023/05/29 00:21:48;;;;;;;7.70;4.07;;;10.50;91.60;;;;;;2056710;28;20244;-72
2023/05/29 00:22:49;;;;;;;8.00;3.80;;;10.60;91.50;;;;;;2060927;28;20280;-71
2023/05/29 00:23:50;;;;;;;7.70;3.40;;;10.50;91.30;;;;;;2059518;28;20248;-74
2023/05/29 00:24:51;;;;;;;6.17;3.50;;;10.50;91.40;;;;;;2051054;28;20631;-71
2023/05/29 00:25:51;;;;;;;7.00;3.33;;;10.50;91.30;;;;;;2054543;28;20225;-71
2023/05/29 00:26:52;;;;;;;7.90;3.87;;;10.50;91.30;;;;;;2045108;28;20227;-70
2023/05/29 00:27:53;;;;;;;6.87;3.43;;;10.50;91.30;;;;;;2063278;28;20661;-71
2023/05/29 00:28:53;;;;;;;6.27;3.33;;;10.50;91.30;;;;;;2060658;28;20594;-72
2023/05/29 00:29:54;;;;;;;7.27;3.80;;;10.50;91.20;;;;;;2060777;28;20266;-71
2023/05/29 00:30:56;;;;;;;5.87;4.00;;;10.50;91.50;;;;;;2060772;28;20256;-71
2023/05/29 00:31:58;;;;;;;8.63;4.60;;;10.90;91.80;;;;;;2062780;28;20229;-71
2023/05/29 00:32:59;;;;;;;10.68;3.83;;;10.40;92.40;;;;;;2061335;28;20301;-71
2023/05/29 00:34:02;;;;;;;7.03;3.60;;;10.30;91.80;;;;;;2060876;28;20234;-72
2023/05/29 00:35:03;;;;;;;7.47;3.88;;;10.30;92.30;;;;;;2062900;28;20245;-73
2023/05/29 00:36:05;;;;;;;7.05;3.72;;;10.30;92.50;;;;;;2064969;28;20186;-72
2023/05/29 00:37:06;;;;;;;9.95;3.80;;;10.30;92.70;;;;;;2070438;28;20205;-71
2023/05/29 00:38:07;;;;;;;9.43;3.80;;;10.40;99.90;;;;;;2023795;28;20172;-72
2023/05/29 00:39:09;;;;;;;7.67;3.53;;;10.30;99.90;;;;;;2056398;28;20190;-71
2023/05/29 00:40:11;;;;;;;6.47;3.97;;;11.00;93.30;;;;;;2064476;28;20192;-72
2023/05/29 00:41:15;;;;;;;6.95;3.72;;;10.20;99.90;;;;;;2052757;28;20183;-72
2023/05/29 00:42:16;;;;;;;6.47;3.72;;;10.20;93.20;;;;;;2057235;28;20604;-72
2023/05/29 00:43:17;;;;;;;6.00;3.47;;;10.20;99.90;;;;;;2047885;28;20234;-71
2023/05/29 00:44:19;;;;;;;8.70;4.03;;;10.00;99.90;;;;;;2055959;28;20664;-72
2023/05/29 00:45:20;;;;;;;6.00;3.50;;;10.20;93.10;;;;;;2064225;28;20234;-72
2023/05/29 00:46:21;;;;;;;7.97;3.35;;;10.30;93.10;;;;;;2056512;28;20226;-72
2023/05/29 00:47:22;;;;;;;6.25;4.07;;;10.30;93.00;;;;;;2048233;28;20415;-72
2023/05/29 00:48:25;;;;;;;6.97;3.27;;;10.30;92.70;;;;;;2053630;28;20234;-73
2023/05/29 00:49:26;;;;;;;7.20;3.85;;;10.40;92.80;;;;;;2050860;28;20676;-72
2023/05/29 00:50:27;;;;;;;7.10;3.42;;;10.40;92.80;;;;;;2064890;28;20234;-72
2023/05/29 00:51:29;;;;;;;6.10;3.60;;;10.60;92.70;;;;;;2060329;28;20735;-72
2023/05/29 00:52:30;;;;;;;9.38;4.43;;;10.40;92.50;;;;;;2044403;28;20235;-72
2023/05/29 00:53:31;;;;;;;7.20;3.67;;;10.50;92.30;;;;;;2056245;28;20352;-72
2023/05/29 00:54:33;;;;;;;7.90;3.45;;;10.80;92.30;;;;;;2061042;28;20297;-72
2023/05/29 00:55:35;;;;;;;7.93;4.40;;;10.40;92.20;;;;;;2048043;29;20349;-72
2023/05/29 00:56:36;;;;;;;6.85;3.42;;;10.90;92.20;;;;;;2048437;28;20231;-72
2023/05/29 00:57:38;;;;;;;9.43;5.00;;;10.50;92.10;;;;;;2060373;28;20630;-72
2023/05/29 00:58:41;;;;;;;5.70;3.17;;;10.50;92.60;;;;;;2053782;28;20905;-72
2023/05/29 00:59:42;;;;;;;7.65;4.63;;;10.80;92.30;;;;;;2040286;29;20640;-72
2023/05/29 01:00:44;;;;;;;8.98;3.90;;;10.70;92.30;;;;;;2050170;28;20783;-72
2023/05/29 01:01:50;;;;;;;8.25;3.90;;;10.70;92.20;;;;;;2057965;28;20235;-72
2023/05/29 01:02:52;;;;;;;9.20;4.07;;;10.40;92.20;;;;;;2059587;28;20230;-73
2023/05/29 01:03:57;;;;;;;8.60;4.35;;;10.40;92.30;;;;;;2052360;28;20218;-72
2023/05/29 01:04:58;;;;;;;8.77;3.75;;;10.30;92.20;;;;;;2068615;28;20691;-72
2023/05/29 01:05:58;;;;;;;5.63;3.45;;;10.40;92.30;;;;;;2064731;28;20607;-72
2023/05/29 01:07:02;;;;;;;5.20;2.90;;;10.80;92.30;;;;;;2056576;28;20234;-72
2023/05/29 01:08:03;;;;;;;7.93;3.60;;;10.40;92.60;;;;;;2036970;28;20216;-73
2023/05/29 01:09:04;;;;;;;7.20;3.97;;;10.40;92.60;;;;;;2046912;28;20227;-73
2023/05/29 01:10:07;;;;;;;7.77;4.30;;;10.40;92.40;;;;;;2060791;28;20187;-73
2023/05/29 01:11:29;;;;;;;6.00;3.20;;;10.50;99.70;;;;;;2062194;28;20585;-73
2023/05/29 01:12:49;;;;;;;10.00;3.95;;;10.30;92.40;;;;;;2058074;28;20240;-72
2023/05/29 01:13:52;;;;;;;9.25;3.85;;;10.20;92.60;;;;;;2054265;28;20236;-72
2023/05/29 01:15:30;;;;;;;8.52;4.20;;;10.10;92.70;;;;;;2061470;28;20236;-71
2023/05/29 01:16:59;;;;;;;9.27;3.63;;;10.10;92.80;;;;;;2056278;28;20266;-72
2023/05/29 01:18:03;;;;;;;7.65;3.58;;;;;;;;;;2059599;28;20214;-72
2023/05/29 01:19:48;;;;;;;7.47;3.90;;;10.10;92.60;;;;;;2052676;28;20214;-72
2023/05/29 01:21:23;;;;;;;6.57;3.70;;;10.00;93.20;;;;;;2061501;28;20620;-71
2023/05/29 01:22:45;;;;;;;7.20;3.60;;;10.00;93.40;;;;;;2060034;28;20237;-71
2023/05/29 01:24:10;;;;;;;8.15;3.28;;;9.90;93.60;;;;;;2060746;28;20260;-72
2023/05/29 01:25:23;;;;;;;9.05;3.83;;;9.90;93.60;;;;;;2059587;28;20597;-71
2023/05/29 01:26:46;;;;;;;6.22;3.17;;;9.90;93.70;;;;;;2065503;28;20712;-71
2023/05/29 01:27:49;;;;;;;6.57;3.70;;;9.90;93.60;;;;;;2064275;28;20229;-71
2023/05/29 01:28:53;;;;;;;6.55;3.22;;;9.90;93.90;;;;;;2054435;28;20226;-71
2023/05/29 01:29:56;;;;;;;7.25;3.92;;;9.80;94.50;;;;;;2054234;28;20224;-71
2023/05/29 01:30:59;;;;;;;7.78;3.70;;;9.80;94.60;;;;;;2046005;28;20219;-71
2023/05/29 01:32:01;;;;;;;10.60;4.25;;;9.80;94.60;;;;;;2059587;28;20269;-73
2023/05/29 01:33:03;;;;;;;8.55;3.42;;;10.00;94.60;;;;;;2059360;28;20179;-72
2023/05/29 01:34:03;;;;;;;6.75;3.45;;;9.50;99.90;;;;;;2058212;28;20186;-71
2023/05/29 01:35:06;;;;;;;7.83;3.83;;;9.90;99.90;;;;;;2046859;29;20628;-72
2023/05/29 01:36:11;;;;;;;8.75;4.60;;;9.90;99.90;;;;;;2045621;28;20687;-71
2023/05/29 01:37:13;;;;;;;6.82;3.75;;;10.40;95.10;;;;;;2054618;28;20208;-71
2023/05/29 01:38:14;;;;;;;6.07;3.22;;;9.70;95.00;;;;;;2065165;28;20301;-72
2023/05/29 01:39:16;;;;;;;8.57;3.87;;;9.80;99.90;;;;;;2063502;28;20204;-71
2023/05/29 01:40:17;;;;;;;7.05;3.40;;;9.70;99.90;;;;;;2063785;28;20700;-71
2023/05/29 01:41:22;;;;;;;7.93;3.50;;;9.60;94.90;;;;;;2056048;28;20540;-71
2023/05/29 01:42:23;;;;;;;9.90;4.00;;;9.60;95.00;;;;;;2056345;28;20310;-72
2023/05/29 01:43:24;;;;;;;8.60;3.70;;;9.60;95.20;;;;;;2056065;28;20740;-72
2023/05/29 01:44:25;;;;;;;7.93;4.47;;;10.00;95.40;;;;;;2047214;29;20520;-72
2023/05/29 01:45:26;;;;;;;10.32;4.13;;;9.90;95.30;;;;;;2047680;28;20595;-72
2023/05/29 01:46:28;;;;;;;9.20;3.72;;;9.60;95.30;;;;;;2056793;28;20300;-72
2023/05/29 01:47:29;;;;;;;6.95;4.10;;;9.60;95.20;;;;;;2056173;28;20256;-72
2023/05/29 01:48:31;;;;;;;7.85;3.88;;;9.60;95.30;;;;;;2064114;28;20819;-72
2023/05/29 01:49:31;;;;;;;6.15;3.25;;;9.60;95.70;;;;;;2059663;28;20268;-72
2023/05/29 01:50:33;;;;;;;7.07;3.60;;;9.60;95.60;;;;;;2063246;28;20661;-72
2023/05/29 01:51:35;;;;;;;6.05;3.83;;;9.50;95.30;;;;;;2069109;28;20232;-72
2023/05/29 01:52:35;;;;;;;6.40;3.60;;;9.60;95.60;;;;;;2066703;28;20746;-72
2023/05/29 01:53:38;;;;;;;8.10;3.53;;;9.50;95.50;;;;;;2061860;28;20236;-71
2023/05/29 01:54:38;;;;;;;6.88;3.50;;;9.50;95.50;;;;;;2053773;28;20372;-72
2023/05/29 01:55:39;;;;;;;7.03;3.80;;;9.50;95.40;;;;;;2054957;28;20226;-72
2023/05/29 01:56:42;;;;;;;5.60;3.83;;;9.60;95.40;;;;;;2043323;28;20315;-72
2023/05/29 01:57:43;;;;;;;7.93;3.90;;;9.70;95.40;;;;;;2061951;28;21036;-72
2023/05/29 01:58:45;;;;;;;6.32;3.80;;;9.60;95.10;;;;;;2046836;28;20707;-72
2023/05/29 01:59:49;;;;;;;9.32;3.95;;;9.60;95.00;;;;;;2061874;28;20685;-72
2023/05/29 02:00:50;;;;;;;10.80;3.95;;;;;;;;;;2069510;28;20252;-72
2023/05/29 02:01:51;;;;;;;8.13;3.67;;;9.60;94.20;;;;;;2058778;28;20237;-72
2023/05/29 02:02:52;;;;;;;8.57;4.23;;;9.60;94.70;;;;;;2061361;28;20232;-72
2023/05/29 02:03:53;;;;;;;6.33;3.80;;;9.60;94.70;;;;;;2062392;28;20257;-72
2023/05/29 02:04:54;;;;;;;7.68;3.95;;;9.60;94.70;;;;;;2063744;28;20295;-72
2023/05/29 02:05:59;;;;;;;9.17;3.43;;;9.50;94.80;;;;;;2062535;28;20218;-72
2023/05/29 02:07:00;;;;;;;7.45;3.90;;;9.60;98.80;;;;;;2059116;28;20213;-73
2023/05/29 02:08:02;;;;;;;7.37;3.80;;;9.50;94.90;;;;;;2051440;28;20280;-72
2023/05/29 02:09:03;;;;;;;8.00;3.63;;;9.60;99.90;;;;;;2044118;28;20273;-72
2023/05/29 02:10:07;;;;;;;6.63;3.43;;;9.60;99.90;;;;;;2047673;28;20752;-73
2023/05/29 02:11:08;;;;;;;4.32;3.35;;;9.50;95.00;;;;;;2059062;28;20208;-72
2023/05/29 02:12:09;;;;;;;10.83;4.23;;;9.50;99.90;;;;;;2055150;28;20198;-72
2023/05/29 02:13:09;;;;;;;7.90;3.47;;;9.20;99.90;;;;;;2047488;28;20186;-72
2023/05/29 02:14:10;;;;;;;5.83;3.60;;;9.40;99.90;;;;;;2053737;28;20722;-72
2023/05/29 02:15:12;;;;;;;8.10;3.93;;;9.50;94.80;;;;;;2052004;28;20255;-72
2023/05/29 02:16:13;;;;;;;5.50;3.40;;;9.50;94.90;;;;;;2063758;28;20339;-73
2023/05/29 02:17:19;;;;;;;6.03;3.22;;;9.70;99.90;;;;;;2049490;28;20203;-73
2023/05/29 02:18:21;;;;;;;7.75;3.72;;;9.80;99.90;;;;;;2043791;28;24077;-72
2023/05/29 02:19:25;;;;;;;4.90;3.38;;;9.50;99.90;;;;;;2059615;28;20232;-72
2023/05/29 02:20:26;;;;;;;5.40;3.47;;;9.40;95.10;;;;;;2060621;28;20225;-72
2023/05/29 02:21:26;;;;;;;7.37;3.83;;;9.40;95.00;;;;;;2060419;28;20250;-73
2023/05/29 02:22:27;;;;;;;7.60;3.40;;;9.30;95.00;;;;;;2056120;28;20277;-72
2023/05/29 02:23:28;;;;;;;6.17;3.30;;;;;;;;;;2055550;28;20228;-72
2023/05/29 02:24:30;;;;;;;8.07;3.70;;;9.30;95.20;;;;;;2042463;28;20288;-72
2023/05/29 02:25:31;;;;;;;9.82;3.30;;;9.30;95.60;;;;;;2055167;28;20243;-72
2023/05/29 02:26:32;;;;;;;7.80;4.17;;;9.20;95.50;;;;;;2057568;28;20268;-72
2023/05/29 02:27:34;;;;;;;4.90;3.08;;;9.20;95.60;;;;;;2061445;28;20238;-71
2023/05/29 02:28:35;;;;;;;4.80;3.30;;;9.20;95.80;;;;;;2063207;28;20669;-72
2023/05/29 02:29:37;;;;;;;7.47;3.63;;;9.20;95.70;;;;;;2057769;28;20218;-72
2023/05/29 02:30:38;;;;;;;5.63;3.50;;;9.30;95.80;;;;;;2063608;28;20719;-72
2023/05/29 02:31:38;;;;;;;7.70;4.13;;;9.20;95.70;;;;;;2059212;28;20234;-72
2023/05/29 02:32:40;;;;;;;7.47;3.77;;;9.20;96.00;;;;;;2057885;28;20231;-72
2023/05/29 02:33:42;;;;;;;7.65;3.67;;;9.10;96.10;;;;;;2052898;28;20240;-72
2023/05/29 02:34:43;;;;;;;6.75;3.67;;;9.20;96.30;;;;;;2063027;28;20242;-72
2023/05/29 02:35:43;;;;;;;9.43;3.60;;;8.90;96.30;;;;;;2060713;28;20227;-71
2023/05/29 02:36:44;;;;;;;6.70;3.67;;;9.00;96.50;;;;;;2063464;28;20743;-72
2023/05/29 02:37:45;;;;;;;8.13;3.30;;;8.90;96.60;;;;;;2057164;28;20227;-72
2023/05/29 02:38:45;;;;;;;8.80;4.23;;;9.00;96.70;;;;;;2058267;28;20250;-72
2023/05/29 02:39:47;;;;;;;5.90;3.53;;;9.00;96.60;;;;;;2063639;28;20247;-71
2023/05/29 02:40:48;;;;;;;7.95;3.40;;;9.00;96.70;;;;;;2057842;28;20309;-74
2023/05/29 02:41:48;;;;;;;8.77;3.77;;;8.90;96.90;;;;;;2057856;28;20223;-71
2023/05/29 02:42:50;;;;;;;7.60;3.47;;;8.90;97.20;;;;;;2068518;28;20218;-72
2023/05/29 02:43:51;;;;;;;5.85;3.58;;;8.90;97.30;;;;;;2063066;28;20229;-71
2023/05/29 02:44:52;;;;;;;6.03;3.83;;;8.90;97.20;;;;;;2050724;28;20309;-72
2023/05/29 02:45:52;;;;;;;6.80;4.03;;;9.00;97.20;;;;;;2055623;28;20222;-72
2023/05/29 02:46:53;;;;;;;7.37;3.57;;;8.80;97.30;;;;;;2047237;28;20238;-72
2023/05/29 02:47:54;;;;;;;5.93;3.43;;;9.40;97.30;;;;;;2050764;28;20219;-72
2023/05/29 02:48:55;;;;;;;8.50;3.57;;;9.00;97.00;;;;;;2062741;28;20639;-72
2023/05/29 02:49:57;;;;;;;7.50;3.70;;;8.90;97.20;;;;;;2057479;28;20691;-73
2023/05/29 02:50:58;;;;;;;6.60;4.07;;;8.90;97.10;;;;;;2067627;28;20229;-72
2023/05/29 02:51:58;;;;;;;6.33;3.83;;;8.90;97.10;;;;;;2066016;28;20218;-72
2023/05/29 02:52:59;;;;;;;6.97;3.70;;;8.90;97.40;;;;;;2056745;28;20223;-72
2023/05/29 02:54:01;;;;;;;7.47;4.40;;;9.00;99.90;;;;;;2057861;28;20282;-74
2023/05/29 02:55:03;;;;;;;6.75;4.00;;;8.80;97.30;;;;;;2061192;28;20217;-72
2023/05/29 02:56:06;;;;;;;7.20;3.45;;;8.90;99.90;;;;;;2059898;28;20201;-72
2023/05/29 02:57:06;;;;;;;6.43;3.90;;;8.80;97.30;;;;;;2058713;28;20283;-72
2023/05/29 02:58:07;;;;;;;7.07;3.63;;;8.80;97.20;;;;;;2050115;28;20235;-72
2023/05/29 02:59:08;;;;;;;7.53;3.70;;;8.90;97.20;;;;;;2063580;28;20191;-73
2023/05/29 03:00:11;;;;;;;7.93;3.83;;;9.10;97.10;;;;;;2062154;28;20215;-72
2023/05/29 03:01:11;;;;;;;9.32;3.63;;;8.80;99.90;;;;;;2062706;28;20196;-73
2023/05/29 03:02:13;;;;;;;8.40;3.47;;;8.80;97.00;;;;;;2051697;28;20681;-72
2023/05/29 03:03:14;;;;;;;10.07;3.72;;;8.90;97.30;;;;;;2054729;28;20199;-72
2023/05/29 03:04:19;;;;;;;7.83;3.43;;;8.70;99.90;;;;;;2046218;29;20195;-72
2023/05/29 03:05:20;;;;;;;5.93;3.50;;;8.80;97.30;;;;;;2063123;28;20674;-72
2023/05/29 03:06:20;;;;;;;7.60;3.60;;;8.70;97.70;;;;;;2059931;28;20264;-72
2023/05/29 03:07:22;;;;;;;6.77;3.83;;;8.80;97.20;;;;;;2067552;28;20232;-73
2023/05/29 03:08:25;;;;;;;6.65;3.80;;;9.10;97.30;;;;;;2063559;28;20233;-72
2023/05/29 03:09:26;;;;;;;7.22;3.75;;;8.80;97.20;;;;;;2052523;28;20296;-72
2023/05/29 03:10:27;;;;;;;7.30;3.77;;;8.70;97.20;;;;;;2051504;28;20235;-72
2023/05/29 03:11:28;;;;;;;7.93;3.83;;;8.60;97.10;;;;;;2050958;28;20460;-72
2023/05/29 03:12:29;;;;;;;8.73;3.97;;;9.00;97.30;;;;;;2060538;28;20238;-72
2023/05/29 03:13:30;;;;;;;9.23;3.60;;;8.70;97.30;;;;;;2065292;28;20269;-71
2023/05/29 03:14:35;;;;;;;6.40;3.78;;;8.80;97.50;;;;;;2063112;28;20252;-72
2023/05/29 03:15:36;;;;;;;7.38;3.97;;;8.60;97.60;;;;;;2063365;28;20235;-72
2023/05/29 03:16:40;;;;;;;6.90;3.77;;;8.60;97.80;;;;;;2054031;28;20235;-72
2023/05/29 03:17:41;;;;;;;5.97;3.75;;;8.60;97.80;;;;;;2057287;28;20242;-72
2023/05/29 03:18:41;;;;;;;9.93;4.10;;;8.60;97.80;;;;;;2059572;28;20218;-73
2023/05/29 03:19:43;;;;;;;8.70;4.00;;;8.60;98.10;;;;;;2060553;28;20218;-72
2023/05/29 03:20:44;;;;;;;8.07;3.58;;;8.60;98.20;;;;;;2056744;28;20236;-72
2023/05/29 03:21:45;;;;;;;7.40;4.10;;;8.50;98.00;;;;;;2052582;28;20228;-71
2023/05/29 03:22:46;;;;;;;4.33;3.50;;;8.50;98.10;;;;;;2067878;28;20284;-73
2023/05/29 03:23:47;;;;;;;8.35;4.00;;;8.50;98.10;;;;;;2062729;28;20227;-72
2023/05/29 03:24:48;;;;;;;8.00;3.70;;;8.50;98.10;;;;;;2057678;28;20272;-72
2023/05/29 03:25:50;;;;;;;6.83;3.90;;;8.90;98.10;;;;;;2059352;28;20268;-72
2023/05/29 03:26:52;;;;;;;4.93;3.75;;;8.50;98.00;;;;;;2067287;28;20249;-72
2023/05/29 03:27:52;;;;;;;7.45;4.07;;;8.90;98.10;;;;;;2067817;28;20255;-72
2023/05/29 03:28:53;;;;;;;9.30;4.40;;;8.50;98.00;;;;;;2057541;28;20228;-72
2023/05/29 03:29:59;;;;;;;7.10;3.50;;;8.50;97.90;;;;;;2052654;28;20466;-72
2023/05/29 03:30:59;;;;;;;6.72;3.75;;;8.40;98.60;;;;;;2052016;28;20228;-74
2023/05/29 03:32:00;;;;;;;7.90;4.63;;;8.10;99.90;;;;;;2046908;28;20184;-73
2023/05/29 03:33:03;;;;;;;7.10;4.03;;;8.30;98.60;;;;;;2054917;28;20199;-73
2023/05/29 03:34:04;;;;;;;8.63;4.10;;;8.10;99.90;;;;;;2045676;28;20184;-73
2023/05/29 03:35:05;;;;;;;8.20;3.90;;;8.40;99.90;;;;;;2046143;28;20663;-72
2023/05/29 03:36:07;;;;;;;7.20;4.37;;;8.70;99.90;;;;;;2049387;28;20187;-73
2023/05/29 03:37:08;;;;;;;9.98;3.50;;;8.30;99.10;;;;;;2059720;28;20992;-72
2023/05/29 03:38:09;;;;;;;7.43;4.13;;;8.50;99.90;;;;;;2066331;28;20204;-72
2023/05/29 03:39:10;;;;;;;6.32;3.72;;;8.20;99.90;;;;;;2066858;28;20190;-72
2023/05/29 03:40:12;;;;;;;8.53;4.37;;;8.30;99.30;;;;;;2059373;28;20199;-72
2023/05/29 03:41:12;;;;;;;7.30;3.63;;;8.50;99.90;;;;;;2059696;28;20225;-72
2023/05/29 03:42:14;;;;;;;8.87;3.70;;;8.40;99.00;;;;;;2059361;28;20187;-72
2023/05/29 03:43:15;;;;;;;6.53;3.70;;;8.50;99.90;;;;;;2066687;28;20261;-72
2023/05/29 03:44:16;;;;;;;8.80;4.05;;;8.60;99.90;;;;;;2066685;28;20240;-72
2023/05/29 03:45:17;;;;;;;7.90;4.40;;;8.60;99.90;;;;;;2067020;28;20190;-72
2023/05/29 03:46:19;;;;;;;5.77;3.47;;;8.50;98.70;;;;;;2059875;28;20191;-73
2023/05/29 03:47:21;;;;;;;7.38;3.72;;;8.60;98.50;;;;;;2066951;28;20280;-72
2023/05/29 03:48:22;;;;;;;8.48;4.15;;;8.70;98.20;;;;;;2067402;28;20788;-72
2023/05/29 03:49:23;;;;;;;8.37;4.10;;;8.70;98.10;;;;;;2061825;28;20222;-72
2023/05/29 03:50:25;;;;;;;7.57;3.97;;;8.70;98.00;;;;;;2061164;28;20330;-72
2023/05/29 03:51:26;;;;;;;7.43;4.22;;;8.70;98.10;;;;;;2060465;28;20325;-72
2023/05/29 03:52:26;;;;;;;8.73;3.97;;;8.60;98.00;;;;;;2060567;28;20949;-72
2023/05/29 03:53:28;;;;;;;6.80;4.00;;;8.70;98.10;;;;;;2061569;28;20220;-72
2023/05/29 03:54:30;;;;;;;6.20;4.25;;;8.80;98.00;;;;;;2060673;28;20238;-73
2023/05/29 03:55:31;;;;;;;6.05;3.65;;;8.70;98.00;;;;;;2059255;28;20301;-73
2023/05/29 03:56:32;;;;;;;10.27;3.75;;;8.70;98.10;;;;;;2059421;28;20668;-71
2023/05/29 03:57:33;;;;;;;8.80;3.63;;;8.70;98.30;;;;;;2055036;28;20232;-72
2023/05/29 03:58:36;;;;;;;9.50;3.20;;;8.80;98.00;;;;;;2061751;28;20716;-72
2023/05/29 03:59:37;;;;;;;7.57;3.75;;;8.80;97.90;;;;;;2053204;28;20230;-73
2023/05/29 04:00:38;;;;;;;8.73;4.20;;;8.80;97.90;;;;;;2055223;28;20261;-72
2023/05/29 04:01:39;;;;;;;7.20;4.25;;;8.80;97.80;;;;;;2059999;28;20827;-73
2023/05/29 04:02:41;;;;;;;8.97;3.67;;;8.80;97.90;;;;;;2049791;28;20246;-72
2023/05/29 04:03:43;;;;;;;5.90;3.63;;;8.70;98.00;;;;;;2054092;28;20231;-72
2023/05/29 04:04:44;;;;;;;10.77;3.80;;;8.70;97.80;;;;;;2054627;28;20242;-72
2023/05/29 04:05:45;;;;;;;6.40;3.60;;;8.70;97.90;;;;;;2056849;28;20236;-72
2023/05/29 04:06:46;;;;;;;8.87;3.80;;;9.00;97.80;;;;;;2059258;28;20222;-72
2023/05/29 04:07:47;;;;;;;8.43;3.97;;;8.80;97.60;;;;;;2061958;28;20651;-72
2023/05/29 04:08:47;;;;;;;6.73;3.57;;;8.70;97.50;;;;;;2061141;28;20285;-73
2023/05/29 04:09:48;;;;;;;6.30;3.60;;;8.70;97.50;;;;;;2061527;28;20460;-73
2023/05/29 04:10:49;;;;;;;6.63;3.73;;;8.70;97.70;;;;;;2058206;28;20222;-72
2023/05/29 04:11:51;;;;;;;7.30;3.70;;;9.00;97.90;;;;;;2052014;28;20216;-72
2023/05/29 04:12:52;;;;;;;5.95;3.65;;;8.70;97.80;;;;;;2058364;28;20223;-72
2023/05/29 04:13:53;;;;;;;6.63;3.57;;;8.80;97.80;;;;;;2046756;28;20307;-71
2023/05/29 04:14:53;;;;;;;7.27;3.80;;;8.80;97.50;;;;;;2038188;28;20224;-72
2023/05/29 04:15:55;;;;;;;7.87;3.67;;;8.80;97.20;;;;;;2061565;28;20301;-72
2023/05/29 04:16:55;;;;;;;6.55;4.03;;;9.10;97.50;;;;;;2059310;28;20235;-72
2023/05/29 04:17:56;;;;;;;7.47;3.92;;;9.10;97.60;;;;;;2059711;28;20225;-72
2023/05/29 04:18:57;;;;;;;8.07;3.63;;;8.70;97.50;;;;;;2059013;28;20700;-72
2023/05/29 04:19:59;;;;;;;5.20;3.25;;;8.70;97.60;;;;;;2060958;28;20218;-72
2023/05/29 04:21:00;;;;;;;6.88;3.90;;;;;;;;;;2060397;28;20220;-73
2023/05/29 04:22:01;;;;;;;6.88;3.38;;;8.90;99.90;;;;;;2066043;28;20203;-73
2023/05/29 04:23:02;;;;;;;7.40;3.70;;;8.70;99.90;;;;;;2046383;28;20298;-73
2023/05/29 04:24:04;;;;;;;6.20;3.80;;;8.50;99.90;;;;;;2054452;28;20186;-73
2023/05/29 04:25:07;;;;;;;7.85;3.53;;;8.80;99.90;;;;;;2056234;28;20638;-72
2023/05/29 04:26:08;;;;;;;7.97;3.97;;;8.80;97.70;;;;;;2053453;28;20282;-72
2023/05/29 04:27:12;;;;;;;6.60;3.70;;;8.80;97.60;;;;;;2060223;28;20190;-73
2023/05/29 04:28:13;;;;;;;9.13;3.70;;;8.80;97.50;;;;;;2062919;28;20196;-73
2023/05/29 04:29:15;;;;;;;8.57;3.87;;;8.90;97.30;;;;;;2055363;28;20286;-73
2023/05/29 04:30:16;;;;;;;9.07;3.70;;;9.30;99.90;;;;;;2053620;28;20288;-73
2023/05/29 04:31:17;;;;;;;5.93;3.57;;;8.80;97.20;;;;;;2062349;28;20722;-73
2023/05/29 04:32:19;;;;;;;8.35;3.45;;;8.90;99.90;;;;;;2056713;28;20196;-72
2023/05/29 04:33:23;;;;;;;10.95;4.38;;;8.80;97.50;;;;;;2065211;28;20776;-72
2023/05/29 04:34:23;;;;;;;8.05;4.68;;;8.90;97.60;;;;;;2064490;28;20237;-73
2023/05/29 04:35:24;;;;;;;7.67;3.87;;;8.90;98.00;;;;;;2066776;28;20233;-72
2023/05/29 04:36:25;;;;;;;6.33;3.97;;;8.80;98.30;;;;;;2070776;28;20579;-72
2023/05/29 04:37:29;;;;;;;6.95;3.47;;;8.80;98.50;;;;;;2061553;28;20239;-72
2023/05/29 04:38:30;;;;;;;6.85;3.50;;;8.80;98.30;;;;;;2062632;28;20249;-72
2023/05/29 04:39:31;;;;;;;7.18;4.20;;;8.80;98.10;;;;;;2062881;28;20323;-72
2023/05/29 04:40:32;;;;;;;7.68;3.95;;;8.80;98.00;;;;;;2058761;28;20320;-72
2023/05/29 04:41:33;;;;;;;7.38;3.75;;;8.90;97.90;;;;;;2060437;28;20251;-71
2023/05/29 04:42:35;;;;;;;7.40;4.07;;;8.90;97.50;;;;;;2061118;28;20246;-72
2023/05/29 04:43:37;;;;;;;9.43;3.97;;;9.00;97.70;;;;;;2059095;28;20707;-72
2023/05/29 04:44:38;;;;;;;5.95;3.63;;;9.00;97.70;;;;;;2058900;28;20239;-72
2023/05/29 04:45:41;;;;;;;6.73;3.97;;;9.00;97.90;;;;;;2058546;28;20326;-72
2023/05/29 04:46:44;;;;;;;8.85;4.32;;;9.00;97.90;;;;;;2060306;28;20496;-72
2023/05/29 04:47:45;;;;;;;6.75;3.90;;;9.00;98.00;;;;;;2059658;28;20230;-71
2023/05/29 04:48:46;;;;;;;7.72;3.80;;;8.90;98.30;;;;;;2062000;28;20321;-72
2023/05/29 04:49:48;;;;;;;9.07;4.72;;;8.90;98.20;;;;;;2051361;28;20238;-72
2023/05/29 04:50:49;;;;;;;14.20;5.50;;;9.00;98.00;;;;;;2053786;28;20310;-72
2023/05/29 04:51:52;;;;;;;10.03;4.53;;;9.00;97.70;;;;;;2059339;28;20227;-72
2023/05/29 04:52:54;;;;;;;9.50;4.20;;;9.10;98.00;;;;;;2061679;28;20303;-72
2023/05/29 04:53:56;;;;;;;8.60;3.92;;;9.10;97.70;;;;;;2055178;28;20228;-71
2023/05/29 04:54:57;;;;;;;11.55;5.07;;;9.00;98.00;;;;;;2052467;28;20228;-72
2023/05/29 04:55:59;;;;;;;7.60;4.10;;;9.00;98.30;;;;;;2054174;28;20227;-72
2023/05/29 04:57:00;;;;;;;5.65;3.90;;;9.20;98.30;;;;;;2058764;28;20236;-73
2023/05/29 04:58:01;;;;;;;9.10;4.32;;;9.10;99.90;;;;;;2059916;28;20181;-73
2023/05/29 04:59:02;;;;;;;6.23;3.70;;;8.90;98.20;;;;;;2057478;28;20186;-73
2023/05/29 05:00:13;;;;;;;8.32;3.95;;;9.50;99.90;;;;;;2056044;28;20189;-73
2023/05/29 05:01:14;;;;;;;7.28;3.88;;;9.00;99.90;;;;;;2063414;28;20243;-72
2023/05/29 05:02:15;;;;;;;6.57;3.93;;;9.00;99.90;;;;;;2060753;28;20263;-72
2023/05/29 05:03:16;;;;;;;8.77;3.93;;;9.30;99.90;;;;;;2065607;28;20461;-73
2023/05/29 05:04:18;;;;;;;8.00;3.67;;;9.20;99.90;;;;;;2067640;28;20183;-72
2023/05/29 05:05:18;;;;;;;8.40;4.07;;;9.40;99.90;;;;;;2062904;28;20207;-72
2023/05/29 05:06:19;;;;;;;4.93;3.30;;;9.30;98.40;;;;;;2056115;28;20231;-72
2023/05/29 05:07:21;;;;;;;6.90;3.87;;;9.40;98.30;;;;;;2053779;28;20698;-73
2023/05/29 05:08:23;;;;;;;7.95;4.47;;;9.50;97.90;;;;;;2058937;28;20657;-72
2023/05/29 05:09:24;;;;;;;9.85;4.20;;;9.60;97.40;;;;;;2064385;28;20613;-73
2023/05/29 05:10:25;;;;;;;5.30;4.18;;;9.70;96.90;;;;;;2055897;28;20233;-72
2023/05/29 05:11:26;;;;;;;6.80;3.57;;;9.80;96.90;;;;;;2064349;28;20232;-72
2023/05/29 05:12:26;;;;;;;6.83;3.73;;;10.00;96.90;;;;;;2064483;28;20692;-72
2023/05/29 05:13:27;;;;;;;7.53;3.93;;;9.80;96.80;;;;;;2053238;28;20592;-71
2023/05/29 05:14:28;;;;;;;7.97;3.93;;;9.90;96.60;;;;;;2055618;28;21044;-72
2023/05/29 05:15:29;;;;;;;6.17;3.60;;;9.90;96.40;;;;;;2060129;28;20248;-71
2023/05/29 05:16:30;;;;;;;8.80;3.83;;;9.90;96.30;;;;;;2051533;28;20349;-72
2023/05/29 05:17:31;;;;;;;9.63;3.97;;;9.90;96.40;;;;;;2060008;28;20260;-71
2023/05/29 05:18:31;;;;;;;6.97;3.60;;;10.00;96.50;;;;;;2057604;28;20235;-72
2023/05/29 05:19:32;;;;;;;8.77;4.03;;;10.30;96.30;;;;;;2055757;28;20724;-72
2023/05/29 05:20:33;;;;;;;6.87;3.63;;;10.20;95.90;;;;;;2063412;28;20365;-71
2023/05/29 05:21:33;;;;;;;8.50;3.73;;;10.20;95.60;;;;;;2060838;28;21029;-72
2023/05/29 05:22:34;;;;;;;9.60;4.13;;;10.20;95.70;;;;;;2055372;28;20244;-70
2023/05/29 05:23:35;;;;;;;7.43;4.20;;;10.20;95.70;;;;;;2058298;28;20227;-71
2023/05/29 05:24:36;;;;;;;7.43;3.43;;;10.20;95.80;;;;;;2058958;28;20273;-72
2023/05/29 05:25:38;;;;;;;7.70;3.47;;;10.20;96.00;;;;;;2059453;28;20293;-72
2023/05/29 05:26:38;;;;;;;7.82;3.72;;;10.20;96.00;;;;;;2054879;28;20736;-72
2023/05/29 05:27:42;;;;;;;15.47;5.33;;;10.20;96.10;;;;;;2062486;28;20343;-71